createdAt,value
2023-05-21T00:03:36.426Z,10.92
2023-05-21T00:07:39.844Z,10.86
2023-05-21T00:11:44.705Z,10.82
2023-05-21T00:15:47.759Z,10.74
2023-05-21T00:19:52.096Z,10.69
2023-05-21T00:23:56.597Z,10.61
2023-05-21T00:28:00.950Z,10.55
2023-05-21T00:32:04.174Z,10.50
2023-05-21T00:36:07.813Z,10.42
2023-05-21T00:40:12.282Z,10.35
2023-05-21T00:44:18.767Z,10.32
2023-05-21T00:48:22.501Z,10.27
2023-05-21T00:52:27.263Z,10.22
2023-05-21T00:56:30.716Z,10.22
2023-05-21T01:00:36.359Z,10.21
2023-05-21T01:04:39.649Z,10.18
2023-05-21T01:08:43.255Z,10.11
2023-05-21T01:12:47.133Z,10.10
2023-05-21T01:16:52.527Z,10.03
2023-05-21T01:20:56.078Z,9.98
2023-05-21T01:25:03.058Z,10.02
2023-05-21T01:29:09.900Z,9.96
2023-05-21T01:33:16.903Z,9.96
2023-05-21T01:37:25.472Z,9.90
2023-05-21T01:41:34.744Z,9.88
2023-05-21T01:45:43.381Z,9.85
2023-05-21T01:49:47.249Z,9.93
2023-05-21T01:53:50.421Z,9.83
2023-05-21T01:57:56.047Z,9.85
2023-05-21T02:01:59.245Z,9.82
2023-05-21T02:06:05.551Z,9.81
2023-05-21T02:10:09.339Z,9.99
2023-05-21T02:14:14.324Z,9.86
2023-05-21T02:18:18.760Z,9.76
2023-05-21T02:22:22.027Z,9.86
2023-05-21T02:26:25.122Z,9.74
2023-05-21T02:30:29.907Z,9.61
2023-05-21T02:34:33.222Z,9.57
2023-05-21T02:38:36.035Z,9.66
2023-05-21T02:42:40.317Z,9.70
2023-05-21T02:46:45.367Z,9.64
2023-05-21T02:50:48.612Z,9.71
2023-05-21T02:54:51.786Z,9.73
2023-05-21T02:58:54.820Z,9.76
2023-05-21T03:02:59.701Z,9.89
2023-05-21T03:07:03.660Z,10.32
2023-05-21T03:11:06.760Z,10.50
2023-05-21T03:15:10.062Z,10.67
2023-05-21T03:19:15.105Z,10.67
2023-05-21T03:23:20.532Z,10.67
2023-05-21T03:27:23.541Z,10.78
2023-05-21T03:31:27.232Z,10.99
2023-05-21T03:35:31.833Z,11.38
2023-05-21T03:39:36.602Z,11.45
2023-05-21T03:43:39.583Z,11.80
2023-05-21T03:47:43.251Z,12.12
2023-05-21T03:51:47.478Z,12.41
2023-05-21T03:55:55.400Z,12.67
2023-05-21T03:59:59.336Z,12.89
2023-05-21T04:04:02.559Z,13.11
2023-05-21T04:08:07.109Z,13.36
2023-05-21T04:12:10.145Z,13.84
2023-05-21T04:16:14.886Z,15.98
2023-05-21T04:20:18.230Z,17.61
2023-05-21T04:24:22.708Z,19.32
2023-05-21T04:28:29.086Z,20.02
2023-05-21T04:32:33.621Z,21.72
2023-05-21T04:36:36.719Z,21.59
2023-05-21T04:40:41.206Z,21.45
2023-05-21T04:44:44.676Z,22.81
2023-05-21T04:48:47.756Z,23.31
2023-05-21T04:52:50.650Z,23.76
2023-05-21T04:56:55.009Z,23.73
2023-05-21T05:00:58.132Z,23.93
2023-05-21T05:05:01.458Z,24.33
2023-05-21T05:09:05.353Z,24.71
2023-05-21T05:13:10.101Z,24.31
2023-05-21T05:17:16.129Z,24.58
2023-05-21T05:21:19.357Z,24.65
2023-05-21T05:25:22.440Z,26.35
2023-05-21T05:29:27.307Z,26.19
2023-05-21T05:33:30.649Z,26.35
2023-05-21T05:37:34.495Z,26.52
2023-05-21T05:41:37.741Z,27.20
2023-05-21T05:45:42.207Z,27.25
2023-05-21T05:49:45.417Z,27.07
2023-05-21T05:53:48.463Z,28.37
2023-05-21T05:57:51.598Z,27.27
2023-05-21T06:01:56.033Z,28.45
2023-05-21T06:05:59.115Z,29.91
2023-05-21T06:10:01.941Z,29.02
2023-05-21T06:14:04.714Z,31.39
2023-05-21T06:18:09.292Z,30.54
2023-05-21T06:22:14.460Z,31.53
2023-05-21T06:26:19.324Z,30.81
2023-05-21T06:30:22.171Z,32.40
2023-05-21T06:34:26.700Z,32.42
2023-05-21T06:38:29.263Z,31.48
2023-05-21T06:42:32.378Z,31.13
2023-05-21T06:46:36.079Z,31.51
2023-05-21T06:50:40.554Z,31.95
2023-05-21T06:54:44.011Z,31.18
2023-05-21T06:58:47.339Z,32.93
2023-05-21T07:02:50.312Z,31.91
2023-05-21T07:06:54.861Z,33.25
2023-05-21T07:10:57.902Z,34.13
2023-05-21T07:15:00.894Z,31.46
2023-05-21T07:19:04.173Z,32.61
2023-05-21T07:23:08.418Z,32.80
2023-05-21T07:27:24.549Z,31.68
2023-05-21T07:31:28.758Z,33.99
2023-05-21T07:35:31.472Z,32.14
2023-05-21T07:39:35.760Z,32.34
2023-05-21T07:43:39.029Z,31.54
2023-05-21T07:47:42.552Z,33.43
2023-05-21T07:51:45.881Z,30.56
2023-05-21T07:55:51.680Z,30.37
2023-05-21T07:59:54.503Z,32.17
2023-05-21T08:03:57.555Z,31.75
2023-05-21T08:08:00.844Z,31.91
2023-05-21T08:12:06.030Z,30.63
2023-05-21T08:16:09.304Z,31.51
2023-05-21T08:20:14.619Z,30.62
2023-05-21T08:24:17.479Z,31.09
2023-05-21T08:28:23.942Z,32.15
2023-05-21T08:32:27.424Z,31.46
2023-05-21T08:36:30.358Z,29.87
2023-05-21T08:40:33.747Z,31.51
2023-05-21T08:44:42.382Z,30.01
2023-05-21T08:48:46.505Z,30.61
2023-05-21T08:52:49.684Z,30.98
2023-05-21T08:56:54.435Z,29.92
2023-05-21T09:01:00.684Z,30.69
2023-05-21T09:05:05.335Z,30.29
2023-05-21T09:09:16.156Z,29.60
2023-05-21T09:13:20.179Z,30.67
2023-05-21T09:17:25.234Z,29.20
2023-05-21T09:21:29.831Z,29.03
2023-05-21T09:25:33.354Z,29.31
2023-05-21T09:29:36.750Z,28.09
2023-05-21T09:33:47.760Z,29.21
2023-05-21T09:37:52.618Z,28.75
2023-05-21T09:41:58.928Z,29.09
2023-05-21T09:46:04.319Z,29.06
2023-05-21T09:50:10.883Z,28.30
2023-05-21T09:54:13.630Z,28.39
2023-05-21T09:58:16.479Z,28.10
2023-05-21T10:02:21.861Z,27.89
2023-05-21T10:06:28.764Z,28.49
2023-05-21T10:10:32.926Z,28.09
2023-05-21T10:14:37.252Z,27.53
2023-05-21T10:18:41.212Z,28.11
2023-05-21T10:22:46.579Z,27.94
2023-05-21T10:26:50.404Z,27.61
2023-05-21T10:30:54.618Z,27.37
2023-05-21T10:35:02.314Z,27.36
2023-05-21T10:39:09.867Z,27.00
2023-05-21T10:43:36.054Z,26.98
2023-05-21T10:48:02.089Z,27.11
2023-05-21T10:52:20.089Z,27.12
2023-05-21T10:56:26.914Z,26.34
2023-05-21T11:00:31.813Z,26.44
2023-05-21T11:04:40.089Z,26.54
2023-05-21T11:08:49.985Z,26.49
2023-05-21T11:13:14.051Z,26.07
2023-05-21T11:17:18.059Z,25.72
2023-05-21T11:21:26.415Z,26.39
2023-05-21T11:25:31.859Z,26.60
2023-05-21T11:29:42.300Z,25.73
2023-05-21T11:33:45.388Z,25.70
2023-05-21T11:37:55.007Z,25.63
2023-05-21T11:42:03.140Z,26.35
2023-05-21T11:46:08.924Z,26.04
2023-05-21T11:50:15.266Z,25.85
2023-05-21T11:54:19.549Z,25.75
2023-05-21T11:58:22.861Z,26.10
2023-05-21T12:02:28.777Z,25.97
2023-05-21T12:06:31.814Z,25.75
2023-05-21T12:10:35.037Z,25.74
2023-05-21T12:14:39.048Z,25.90
2023-05-21T12:18:43.496Z,25.78
2023-05-21T12:22:46.794Z,25.65
2023-05-21T12:26:52.474Z,25.71
2023-05-21T12:30:55.842Z,25.71
2023-05-21T12:35:00.112Z,25.27
2023-05-21T12:39:03.133Z,25.42
2023-05-21T12:43:06.726Z,25.38
2023-05-21T12:47:10.028Z,25.29
2023-05-21T12:51:14.657Z,25.18
2023-05-21T12:55:18.479Z,25.15
2023-05-21T12:59:21.531Z,25.15
2023-05-21T13:03:25.413Z,24.57
2023-05-21T13:07:31.142Z,24.86
2023-05-21T13:11:34.092Z,24.60
2023-05-21T13:15:37.295Z,24.35
2023-05-21T13:19:40.836Z,24.52
2023-05-21T13:23:45.155Z,24.33
2023-05-21T13:27:48.484Z,24.77
2023-05-21T13:31:51.397Z,24.50
2023-05-21T13:35:54.226Z,24.59
2023-05-21T13:39:58.656Z,24.88
2023-05-21T13:44:02.051Z,24.50
2023-05-21T13:48:05.509Z,24.50
2023-05-21T13:52:10.147Z,24.57
2023-05-21T13:56:14.870Z,24.60
2023-05-21T14:00:18.175Z,24.39
2023-05-21T14:04:21.952Z,24.59
2023-05-21T14:08:28.724Z,24.39
2023-05-21T14:12:33.620Z,24.55
2023-05-21T14:16:36.640Z,24.50
2023-05-21T14:20:39.747Z,24.23
2023-05-21T14:24:42.822Z,24.26
2023-05-21T14:28:47.484Z,24.17
2023-05-21T14:32:50.961Z,24.08
2023-05-21T14:36:54.247Z,24.09
2023-05-21T14:40:57.554Z,24.30
2023-05-21T14:45:17.413Z,24.03
2023-05-21T14:49:21.737Z,23.98
2023-05-21T14:53:24.392Z,23.86
2023-05-21T14:57:27.285Z,23.79
2023-05-21T15:01:31.687Z,23.85
2023-05-21T15:05:34.835Z,23.66
2023-05-21T15:09:37.812Z,23.75
2023-05-21T15:13:40.849Z,23.73
2023-05-21T15:17:45.657Z,23.96
2023-05-21T15:21:52.880Z,23.53
2023-05-21T15:25:56.057Z,23.37
2023-05-21T15:30:01.773Z,23.06
2023-05-21T15:34:06.435Z,22.96
2023-05-21T15:38:09.573Z,23.02
2023-05-21T15:42:13.100Z,23.05
2023-05-21T15:46:16.365Z,23.01
2023-05-21T15:50:20.750Z,22.91
2023-05-21T15:54:23.807Z,22.91
2023-05-21T15:58:26.892Z,22.97
2023-05-21T16:02:29.738Z,22.73
2023-05-21T16:06:34.248Z,22.65
2023-05-21T16:10:40.169Z,22.39
2023-05-21T16:14:42.894Z,22.34
2023-05-21T16:18:46.163Z,22.27
2023-05-21T16:22:50.777Z,22.23
2023-05-21T16:26:53.976Z,22.22
2023-05-21T16:30:57.090Z,22.02
2023-05-21T16:35:00.585Z,22.03
2023-05-21T16:39:05.461Z,22.01
2023-05-21T16:43:08.795Z,21.92
2023-05-21T16:47:11.949Z,21.79
2023-05-21T16:51:15.024Z,21.74
2023-05-21T16:55:19.532Z,21.59
2023-05-21T16:59:23.053Z,21.51
2023-05-21T17:03:26.395Z,21.30
2023-05-21T17:07:29.330Z,21.20
2023-05-21T17:11:37.466Z,21.13
2023-05-21T17:15:40.935Z,21.02
2023-05-21T17:19:44.707Z,20.78
2023-05-21T17:23:47.900Z,20.69
2023-05-21T17:27:53.448Z,20.54
2023-05-21T17:31:56.473Z,20.19
2023-05-21T17:35:59.522Z,19.99
2023-05-21T17:40:03.034Z,19.64
2023-05-21T17:44:07.472Z,19.46
2023-05-21T17:48:12.257Z,19.30
2023-05-21T17:52:15.040Z,19.22
2023-05-21T17:56:18.093Z,19.01
2023-05-21T18:00:25.281Z,18.62
2023-05-21T18:04:29.406Z,18.28
2023-05-21T18:08:32.778Z,17.88
2023-05-21T18:12:36.483Z,17.49
2023-05-21T18:16:41.440Z,17.21
2023-05-21T18:20:45.682Z,17.00
2023-05-21T18:24:51.556Z,16.77
2023-05-21T18:28:54.810Z,16.54
2023-05-21T18:33:01.612Z,16.18
2023-05-21T18:37:07.254Z,16.02
2023-05-21T18:41:10.211Z,15.84
2023-05-21T18:45:13.843Z,15.63
2023-05-21T18:49:18.147Z,15.45
2023-05-21T18:53:21.625Z,15.34
2023-05-21T18:57:24.903Z,15.03
2023-05-21T19:01:28.235Z,14.84
2023-05-21T19:05:32.585Z,14.59
2023-05-21T19:09:35.655Z,14.39
2023-05-21T19:13:38.707Z,14.25
2023-05-21T19:17:41.806Z,14.05
2023-05-21T19:21:46.051Z,13.88
2023-05-21T19:25:49.497Z,13.75
2023-05-21T19:29:52.842Z,13.57
2023-05-21T19:33:55.999Z,13.39
2023-05-21T19:38:01.846Z,13.26
2023-05-21T19:42:08.656Z,13.15
2023-05-21T19:46:11.609Z,13.03
2023-05-21T19:50:15.070Z,12.93
2023-05-21T19:54:19.499Z,12.80
2023-05-21T19:58:27.074Z,12.69
2023-05-21T20:02:30.351Z,12.61
2023-05-21T20:06:33.652Z,12.55
2023-05-21T20:10:38.192Z,12.46
2023-05-21T20:14:42.976Z,12.35
2023-05-21T20:18:47.270Z,12.24
2023-05-21T20:22:50.808Z,12.12
2023-05-21T20:26:56.832Z,12.01
2023-05-21T20:31:00.195Z,11.92
2023-05-21T20:35:04.106Z,11.80
2023-05-21T20:39:09.073Z,11.66
2023-05-21T20:43:14.063Z,11.58
2023-05-21T20:47:17.134Z,11.44
2023-05-21T20:51:20.356Z,11.38
2023-05-21T20:55:23.292Z,11.29
2023-05-21T20:59:28.428Z,11.18
2023-05-21T21:03:34.422Z,11.12
2023-05-21T21:07:39.616Z,11.04
2023-05-21T21:11:42.873Z,11.01
2023-05-21T21:15:47.371Z,10.92
2023-05-21T21:19:50.786Z,10.84
2023-05-21T21:23:54.204Z,10.79
2023-05-21T21:27:57.377Z,10.70
2023-05-21T21:32:03.947Z,10.67
2023-05-21T21:36:07.747Z,10.59
2023-05-21T21:40:13.961Z,10.48
2023-05-21T21:44:17.238Z,10.41
2023-05-21T21:48:21.639Z,10.37
2023-05-21T21:52:27.692Z,10.30
2023-05-21T21:56:31.252Z,10.28
2023-05-21T22:00:34.433Z,10.25
2023-05-21T22:04:39.241Z,10.23
2023-05-21T22:08:42.894Z,10.22
2023-05-21T22:12:47.624Z,10.19
2023-05-21T22:16:53.405Z,10.09
2023-05-21T22:20:58.003Z,10.02
2023-05-21T22:25:03.526Z,9.94
2023-05-21T22:29:06.558Z,9.89
2023-05-21T22:33:10.244Z,9.81
2023-05-21T22:37:15.014Z,9.73
2023-05-21T22:41:18.272Z,9.64
2023-05-21T22:45:22.159Z,9.58
2023-05-21T22:49:25.196Z,9.52
2023-05-21T22:53:29.135Z,9.49
2023-05-21T22:57:32.174Z,9.49
2023-05-21T23:01:36.998Z,9.50
2023-05-21T23:05:40.355Z,9.48
2023-05-21T23:09:45.363Z,9.45
2023-05-21T23:13:48.346Z,9.39
2023-05-21T23:17:53.187Z,9.32
2023-05-21T23:21:56.922Z,9.21
2023-05-21T23:26:01.955Z,9.12
2023-05-21T23:30:05.388Z,9.04
2023-05-21T23:34:08.391Z,8.97
2023-05-21T23:38:10.941Z,8.89
2023-05-21T23:42:15.288Z,8.85
2023-05-21T23:46:18.483Z,8.79
2023-05-21T23:50:21.513Z,8.72
2023-05-21T23:54:24.545Z,8.73
2023-05-21T23:58:28.704Z,8.69
